sensor_id;sensor_type;location;lat;lon;timestamp;P1;durP1;ratioP1;P2;durP2;ratioP2
49015;SDS011;34830;44.064;12.566;2024-02-15T00:02:16;57.78;;;31.52;;
49015;SDS011;34830;44.064;12.566;2024-02-15T00:04:42;54.55;;;28.92;;
49015;SDS011;34830;44.064;12.566;2024-02-15T00:07:08;51.80;;;27.98;;
49015;SDS011;34830;44.064;12.566;2024-02-15T00:09:34;47.95;;;26.27;;
49015;SDS011;34830;44.064;12.566;2024-02-15T00:12:00;49.70;;;26.42;;
49015;SDS011;34830;44.064;12.566;2024-02-15T00:14:26;50.72;;;27.20;;
49015;SDS011;34830;44.064;12.566;2024-02-15T00:16:54;44.13;;;25.42;;
49015;SDS011;34830;44.064;12.566;2024-02-15T00:19:20;48.33;;;24.75;;
49015;SDS011;34830;44.064;12.566;2024-02-15T00:21:47;42.33;;;24.52;;
49015;SDS011;34830;44.064;12.566;2024-02-15T00:24:14;46.22;;;27.77;;
49015;SDS011;34830;44.064;12.566;2024-02-15T00:26:43;50.25;;;28.45;;
49015;SDS011;34830;44.064;12.566;2024-02-15T00:29:09;51.90;;;28.70;;
49015;SDS011;34830;44.064;12.566;2024-02-15T00:31:36;53.00;;;29.48;;
49015;SDS011;34830;44.064;12.566;2024-02-15T00:34:04;60.55;;;34.08;;
49015;SDS011;34830;44.064;12.566;2024-02-15T00:36:30;60.97;;;31.15;;
49015;SDS011;34830;44.064;12.566;2024-02-15T00:38:58;57.83;;;31.33;;
49015;SDS011;34830;44.064;12.566;2024-02-15T00:41:24;55.45;;;29.92;;
49015;SDS011;34830;44.064;12.566;2024-02-15T00:43:50;62.40;;;29.92;;
49015;SDS011;34830;44.064;12.566;2024-02-15T00:46:17;56.53;;;29.27;;
49015;SDS011;34830;44.064;12.566;2024-02-15T00:48:43;61.05;;;31.42;;
49015;SDS011;34830;44.064;12.566;2024-02-15T00:51:09;51.83;;;28.48;;
49015;SDS011;34830;44.064;12.566;2024-02-15T00:53:35;50.83;;;27.55;;
49015;SDS011;34830;44.064;12.566;2024-02-15T00:56:01;46.72;;;27.30;;
49015;SDS011;34830;44.064;12.566;2024-02-15T00:58:27;46.03;;;25.65;;
49015;SDS011;34830;44.064;12.566;2024-02-15T01:00:53;52.80;;;27.10;;
49015;SDS011;34830;44.064;12.566;2024-02-15T01:03:19;47.30;;;25.80;;
49015;SDS011;34830;44.064;12.566;2024-02-15T01:05:45;53.58;;;27.27;;
49015;SDS011;34830;44.064;12.566;2024-02-15T01:08:11;45.13;;;26.10;;
49015;SDS011;34830;44.064;12.566;2024-02-15T01:10:38;41.60;;;24.02;;
49015;SDS011;34830;44.064;12.566;2024-02-15T01:13:04;46.92;;;25.17;;
49015;SDS011;34830;44.064;12.566;2024-02-15T01:15:30;46.50;;;26.60;;
49015;SDS011;34830;44.064;12.566;2024-02-15T01:17:56;45.15;;;25.70;;
49015;SDS011;34830;44.064;12.566;2024-02-15T01:20:23;49.58;;;26.17;;
49015;SDS011;34830;44.064;12.566;2024-02-15T01:22:49;45.83;;;25.40;;
49015;SDS011;34830;44.064;12.566;2024-02-15T01:25:17;42.78;;;25.38;;
49015;SDS011;34830;44.064;12.566;2024-02-15T01:27:43;40.72;;;24.23;;
49015;SDS011;34830;44.064;12.566;2024-02-15T01:30:09;44.85;;;23.98;;
49015;SDS011;34830;44.064;12.566;2024-02-15T01:32:35;40.83;;;24.63;;
49015;SDS011;34830;44.064;12.566;2024-02-15T01:35:02;39.60;;;24.27;;
49015;SDS011;34830;44.064;12.566;2024-02-15T01:37:28;47.33;;;24.10;;
49015;SDS011;34830;44.064;12.566;2024-02-15T01:39:55;45.40;;;23.63;;
49015;SDS011;34830;44.064;12.566;2024-02-15T01:42:21;53.55;;;26.25;;
49015;SDS011;34830;44.064;12.566;2024-02-15T01:44:47;42.88;;;25.25;;
49015;SDS011;34830;44.064;12.566;2024-02-15T01:47:16;40.03;;;24.15;;
49015;SDS011;34830;44.064;12.566;2024-02-15T01:49:44;48.50;;;25.42;;
49015;SDS011;34830;44.064;12.566;2024-02-15T01:52:11;44.65;;;24.90;;
49015;SDS011;34830;44.064;12.566;2024-02-15T01:54:39;43.83;;;24.05;;
49015;SDS011;34830;44.064;12.566;2024-02-15T01:57:05;38.17;;;22.40;;
49015;SDS011;34830;44.064;12.566;2024-02-15T01:59:32;39.63;;;22.85;;
49015;SDS011;34830;44.064;12.566;2024-02-15T02:01:58;41.67;;;22.50;;
49015;SDS011;34830;44.064;12.566;2024-02-15T02:04:24;39.67;;;21.60;;
49015;SDS011;34830;44.064;12.566;2024-02-15T02:06:50;38.33;;;22.10;;
49015;SDS011;34830;44.064;12.566;2024-02-15T02:09:17;38.03;;;21.55;;
49015;SDS011;34830;44.064;12.566;2024-02-15T02:11:46;37.45;;;21.45;;
49015;SDS011;34830;44.064;12.566;2024-02-15T02:14:12;37.47;;;20.95;;
49015;SDS011;34830;44.064;12.566;2024-02-15T02:16:38;42.38;;;21.52;;
49015;SDS011;34830;44.064;12.566;2024-02-15T02:19:05;41.10;;;22.25;;
49015;SDS011;34830;44.064;12.566;2024-02-15T02:21:35;37.00;;;21.65;;
49015;SDS011;34830;44.064;12.566;2024-02-15T02:24:07;40.45;;;22.33;;
49015;SDS011;34830;44.064;12.566;2024-02-15T02:26:38;38.78;;;21.23;;
49015;SDS011;34830;44.064;12.566;2024-02-15T02:29:05;38.20;;;22.55;;
49015;SDS011;34830;44.064;12.566;2024-02-15T02:31:34;32.38;;;19.63;;
49015;SDS011;34830;44.064;12.566;2024-02-15T02:34:00;35.33;;;20.02;;
49015;SDS011;34830;44.064;12.566;2024-02-15T02:36:27;32.55;;;19.40;;
49015;SDS011;34830;44.064;12.566;2024-02-15T02:38:57;37.58;;;19.17;;
49015;SDS011;34830;44.064;12.566;2024-02-15T02:41:27;37.30;;;21.38;;
49015;SDS011;34830;44.064;12.566;2024-02-15T02:43:55;38.50;;;20.73;;
49015;SDS011;34830;44.064;12.566;2024-02-15T02:46:24;39.22;;;19.60;;
49015;SDS011;34830;44.064;12.566;2024-02-15T02:48:50;36.95;;;20.17;;
49015;SDS011;34830;44.064;12.566;2024-02-15T02:51:17;36.05;;;20.35;;
49015;SDS011;34830;44.064;12.566;2024-02-15T02:53:44;35.53;;;20.02;;
49015;SDS011;34830;44.064;12.566;2024-02-15T02:56:10;36.90;;;21.33;;
49015;SDS011;34830;44.064;12.566;2024-02-15T02:58:36;32.60;;;19.25;;
49015;SDS011;34830;44.064;12.566;2024-02-15T03:01:02;33.72;;;17.95;;
49015;SDS011;34830;44.064;12.566;2024-02-15T03:03:28;30.80;;;17.13;;
49015;SDS011;34830;44.064;12.566;2024-02-15T03:05:55;36.58;;;17.83;;
49015;SDS011;34830;44.064;12.566;2024-02-15T03:08:21;33.97;;;15.95;;
49015;SDS011;34830;44.064;12.566;2024-02-15T03:10:48;24.48;;;14.68;;
49015;SDS011;34830;44.064;12.566;2024-02-15T03:13:14;26.52;;;13.88;;
49015;SDS011;34830;44.064;12.566;2024-02-15T03:15:40;31.88;;;17.27;;
49015;SDS011;34830;44.064;12.566;2024-02-15T03:18:07;32.00;;;19.58;;
49015;SDS011;34830;44.064;12.566;2024-02-15T03:20:36;38.28;;;20.83;;
49015;SDS011;34830;44.064;12.566;2024-02-15T03:23:03;33.55;;;18.48;;
49015;SDS011;34830;44.064;12.566;2024-02-15T03:25:29;33.17;;;18.98;;
49015;SDS011;34830;44.064;12.566;2024-02-15T03:27:56;35.08;;;19.90;;
49015;SDS011;34830;44.064;12.566;2024-02-15T03:30:25;32.05;;;18.70;;
49015;SDS011;34830;44.064;12.566;2024-02-15T03:32:52;33.90;;;19.33;;
49015;SDS011;34830;44.064;12.566;2024-02-15T03:35:20;33.05;;;18.90;;
49015;SDS011;34830;44.064;12.566;2024-02-15T03:37:51;38.47;;;20.73;;
49015;SDS011;34830;44.064;12.566;2024-02-15T03:40:18;31.77;;;19.90;;
49015;SDS011;34830;44.064;12.566;2024-02-15T03:42:45;33.33;;;19.08;;
49015;SDS011;34830;44.064;12.566;2024-02-15T03:45:12;33.40;;;19.08;;
49015;SDS011;34830;44.064;12.566;2024-02-15T03:47:38;33.50;;;19.17;;
49015;SDS011;34830;44.064;12.566;2024-02-15T03:50:05;38.67;;;21.77;;
49015;SDS011;34830;44.064;12.566;2024-02-15T03:52:33;36.72;;;21.50;;
49015;SDS011;34830;44.064;12.566;2024-02-15T03:55:00;36.85;;;19.98;;
49015;SDS011;34830;44.064;12.566;2024-02-15T03:57:28;39.28;;;19.33;;
49015;SDS011;34830;44.064;12.566;2024-02-15T03:59:54;38.53;;;19.60;;
49015;SDS011;34830;44.064;12.566;2024-02-15T04:02:23;36.90;;;19.65;;
49015;SDS011;34830;44.064;12.566;2024-02-15T04:04:52;36.97;;;19.73;;
49015;SDS011;34830;44.064;12.566;2024-02-15T04:07:20;40.15;;;19.88;;
49015;SDS011;34830;44.064;12.566;2024-02-15T04:09:47;32.97;;;19.23;;
49015;SDS011;34830;44.064;12.566;2024-02-15T04:12:14;33.42;;;18.95;;
49015;SDS011;34830;44.064;12.566;2024-02-15T04:14:40;36.47;;;20.13;;
49015;SDS011;34830;44.064;12.566;2024-02-15T04:17:07;36.65;;;18.63;;
49015;SDS011;34830;44.064;12.566;2024-02-15T04:19:33;35.92;;;19.23;;
49015;SDS011;34830;44.064;12.566;2024-02-15T04:21:59;35.63;;;17.55;;
49015;SDS011;34830;44.064;12.566;2024-02-15T04:24:33;32.45;;;18.88;;
49015;SDS011;34830;44.064;12.566;2024-02-15T04:27:00;32.78;;;19.38;;
49015;SDS011;34830;44.064;12.566;2024-02-15T04:29:26;34.75;;;18.88;;
49015;SDS011;34830;44.064;12.566;2024-02-15T04:31:52;35.97;;;17.83;;
49015;SDS011;34830;44.064;12.566;2024-02-15T04:34:20;32.00;;;16.98;;
49015;SDS011;34830;44.064;12.566;2024-02-15T04:36:47;34.65;;;17.85;;
49015;SDS011;34830;44.064;12.566;2024-02-15T04:39:19;34.20;;;17.08;;
49015;SDS011;34830;44.064;12.566;2024-02-15T04:41:55;35.55;;;18.30;;
49015;SDS011;34830;44.064;12.566;2024-02-15T04:44:21;38.92;;;19.98;;
49015;SDS011;34830;44.064;12.566;2024-02-15T04:46:48;32.28;;;17.70;;
49015;SDS011;34830;44.064;12.566;2024-02-15T04:49:17;38.42;;;17.88;;
49015;SDS011;34830;44.064;12.566;2024-02-15T04:51:44;30.33;;;16.75;;
49015;SDS011;34830;44.064;12.566;2024-02-15T04:54:10;38.90;;;17.27;;
49015;SDS011;34830;44.064;12.566;2024-02-15T04:56:40;29.30;;;16.70;;
49015;SDS011;34830;44.064;12.566;2024-02-15T04:59:06;30.95;;;17.13;;
49015;SDS011;34830;44.064;12.566;2024-02-15T05:01:34;33.38;;;17.33;;
49015;SDS011;34830;44.064;12.566;2024-02-15T05:04:01;37.33;;;16.95;;
49015;SDS011;34830;44.064;12.566;2024-02-15T05:06:33;26.15;;;15.27;;
49015;SDS011;34830;44.064;12.566;2024-02-15T05:08:59;26.92;;;13.75;;
49015;SDS011;34830;44.064;12.566;2024-02-15T05:11:25;25.70;;;12.85;;
49015;SDS011;34830;44.064;12.566;2024-02-15T05:13:52;23.10;;;12.07;;
49015;SDS011;34830;44.064;12.566;2024-02-15T05:16:18;19.15;;;11.30;;
49015;SDS011;34830;44.064;12.566;2024-02-15T05:18:45;20.15;;;10.13;;
49015;SDS011;34830;44.064;12.566;2024-02-15T05:21:11;16.42;;;9.23;;
49015;SDS011;34830;44.064;12.566;2024-02-15T05:23:38;17.83;;;8.77;;
49015;SDS011;34830;44.064;12.566;2024-02-15T05:26:05;15.82;;;8.55;;
49015;SDS011;34830;44.064;12.566;2024-02-15T05:28:31;16.05;;;9.20;;
49015;SDS011;34830;44.064;12.566;2024-02-15T05:31:14;17.55;;;10.32;;
49015;SDS011;34830;44.064;12.566;2024-02-15T05:33:49;15.85;;;10.60;;
49015;SDS011;34830;44.064;12.566;2024-02-15T05:36:16;21.95;;;11.18;;
49015;SDS011;34830;44.064;12.566;2024-02-15T05:38:47;23.73;;;12.40;;
49015;SDS011;34830;44.064;12.566;2024-02-15T05:41:14;27.13;;;11.48;;
49015;SDS011;34830;44.064;12.566;2024-02-15T05:43:40;19.83;;;12.48;;
49015;SDS011;34830;44.064;12.566;2024-02-15T05:46:09;25.20;;;13.48;;
49015;SDS011;34830;44.064;12.566;2024-02-15T05:48:36;25.20;;;12.73;;
49015;SDS011;34830;44.064;12.566;2024-02-15T05:51:03;20.85;;;11.82;;
49015;SDS011;34830;44.064;12.566;2024-02-15T05:53:30;25.90;;;12.48;;
49015;SDS011;34830;44.064;12.566;2024-02-15T05:55:56;30.60;;;14.07;;
49015;SDS011;34830;44.064;12.566;2024-02-15T05:58:25;28.33;;;13.70;;
49015;SDS011;34830;44.064;12.566;2024-02-15T06:00:51;25.63;;;12.95;;
49015;SDS011;34830;44.064;12.566;2024-02-15T06:03:19;26.63;;;13.23;;
49015;SDS011;34830;44.064;12.566;2024-02-15T06:05:48;39.35;;;22.38;;
49015;SDS011;34830;44.064;12.566;2024-02-15T06:08:14;25.83;;;15.48;;
49015;SDS011;34830;44.064;12.566;2024-02-15T06:10:41;25.90;;;15.25;;
49015;SDS011;34830;44.064;12.566;2024-02-15T06:13:07;27.85;;;15.00;;
49015;SDS011;34830;44.064;12.566;2024-02-15T06:15:35;31.65;;;14.85;;
49015;SDS011;34830;44.064;12.566;2024-02-15T06:18:02;30.75;;;14.07;;
49015;SDS011;34830;44.064;12.566;2024-02-15T06:20:37;30.40;;;13.88;;
49015;SDS011;34830;44.064;12.566;2024-02-15T06:23:04;24.70;;;14.45;;
49015;SDS011;34830;44.064;12.566;2024-02-15T06:25:33;22.10;;;12.88;;
49015;SDS011;34830;44.064;12.566;2024-02-15T06:28:00;32.97;;;14.40;;
49015;SDS011;34830;44.064;12.566;2024-02-15T06:30:41;28.42;;;13.15;;
49015;SDS011;34830;44.064;12.566;2024-02-15T06:33:26;24.50;;;12.38;;
49015;SDS011;34830;44.064;12.566;2024-02-15T06:36:10;30.83;;;13.80;;
49015;SDS011;34830;44.064;12.566;2024-02-15T06:38:55;31.17;;;13.93;;
49015;SDS011;34830;44.064;12.566;2024-02-15T06:41:40;22.05;;;12.02;;
49015;SDS011;34830;44.064;12.566;2024-02-15T06:44:06;25.33;;;12.48;;
49015;SDS011;34830;44.064;12.566;2024-02-15T06:46:33;23.90;;;12.43;;
49015;SDS011;34830;44.064;12.566;2024-02-15T06:48:59;25.52;;;13.27;;
49015;SDS011;34830;44.064;12.566;2024-02-15T06:51:25;23.02;;;13.10;;
49015;SDS011;34830;44.064;12.566;2024-02-15T06:53:51;27.55;;;12.20;;
49015;SDS011;34830;44.064;12.566;2024-02-15T06:56:21;34.92;;;13.73;;
49015;SDS011;34830;44.064;12.566;2024-02-15T06:58:47;24.73;;;12.95;;
49015;SDS011;34830;44.064;12.566;2024-02-15T07:01:15;24.55;;;11.75;;
49015;SDS011;34830;44.064;12.566;2024-02-15T07:03:42;23.60;;;12.32;;
49015;SDS011;34830;44.064;12.566;2024-02-15T07:06:11;21.75;;;11.35;;
49015;SDS011;34830;44.064;12.566;2024-02-15T07:08:39;20.63;;;11.38;;
49015;SDS011;34830;44.064;12.566;2024-02-15T07:11:06;23.35;;;11.10;;
49015;SDS011;34830;44.064;12.566;2024-02-15T07:13:35;19.27;;;11.82;;
49015;SDS011;34830;44.064;12.566;2024-02-15T07:16:06;21.98;;;11.70;;
49015;SDS011;34830;44.064;12.566;2024-02-15T07:18:41;21.80;;;11.10;;
49015;SDS011;34830;44.064;12.566;2024-02-15T07:21:08;24.48;;;11.50;;
49015;SDS011;34830;44.064;12.566;2024-02-15T07:23:36;25.23;;;12.02;;
49015;SDS011;34830;44.064;12.566;2024-02-15T07:26:03;21.45;;;10.48;;
49015;SDS011;34830;44.064;12.566;2024-02-15T07:28:29;23.05;;;11.63;;
49015;SDS011;34830;44.064;12.566;2024-02-15T07:31:00;19.50;;;11.32;;
49015;SDS011;34830;44.064;12.566;2024-02-15T07:33:29;24.27;;;11.25;;
49015;SDS011;34830;44.064;12.566;2024-02-15T07:35:55;20.98;;;10.85;;
49015;SDS011;34830;44.064;12.566;2024-02-15T07:38:22;23.02;;;12.25;;
49015;SDS011;34830;44.064;12.566;2024-02-15T07:40:49;22.63;;;11.57;;
49015;SDS011;34830;44.064;12.566;2024-02-15T07:43:15;27.35;;;11.73;;
49015;SDS011;34830;44.064;12.566;2024-02-15T07:45:41;28.98;;;13.32;;
49015;SDS011;34830;44.064;12.566;2024-02-15T07:48:08;22.95;;;12.73;;
49015;SDS011;34830;44.064;12.566;2024-02-15T07:50:34;26.38;;;12.43;;
49015;SDS011;34830;44.064;12.566;2024-02-15T07:53:03;24.48;;;13.95;;
49015;SDS011;34830;44.064;12.566;2024-02-15T07:55:32;24.83;;;13.43;;
49015;SDS011;34830;44.064;12.566;2024-02-15T07:57:59;39.47;;;15.32;;
49015;SDS011;34830;44.064;12.566;2024-02-15T08:00:25;25.98;;;13.52;;
49015;SDS011;34830;44.064;12.566;2024-02-15T08:02:53;24.40;;;13.77;;
49015;SDS011;34830;44.064;12.566;2024-02-15T08:05:20;23.42;;;13.75;;
49015;SDS011;34830;44.064;12.566;2024-02-15T08:07:46;31.33;;;15.60;;
49015;SDS011;34830;44.064;12.566;2024-02-15T08:10:15;20.90;;;12.98;;
49015;SDS011;34830;44.064;12.566;2024-02-15T08:12:42;23.48;;;13.13;;
49015;SDS011;34830;44.064;12.566;2024-02-15T08:15:09;31.98;;;13.88;;
49015;SDS011;34830;44.064;12.566;2024-02-15T08:17:44;32.30;;;14.48;;
49015;SDS011;34830;44.064;12.566;2024-02-15T08:20:14;26.90;;;14.30;;
49015;SDS011;34830;44.064;12.566;2024-02-15T08:22:41;25.10;;;14.48;;
49015;SDS011;34830;44.064;12.566;2024-02-15T08:25:07;25.17;;;13.35;;
49015;SDS011;34830;44.064;12.566;2024-02-15T08:27:37;23.38;;;13.10;;
49015;SDS011;34830;44.064;12.566;2024-02-15T08:30:08;27.73;;;14.52;;
49015;SDS011;34830;44.064;12.566;2024-02-15T08:32:39;24.10;;;13.82;;
49015;SDS011;34830;44.064;12.566;2024-02-15T08:35:11;26.00;;;12.68;;
49015;SDS011;34830;44.064;12.566;2024-02-15T08:37:41;29.63;;;15.52;;
49015;SDS011;34830;44.064;12.566;2024-02-15T08:40:09;22.60;;;12.57;;
49015;SDS011;34830;44.064;12.566;2024-02-15T08:42:41;22.63;;;13.65;;
49015;SDS011;34830;44.064;12.566;2024-02-15T08:45:08;24.77;;;12.63;;
49015;SDS011;34830;44.064;12.566;2024-02-15T08:47:38;25.77;;;13.27;;
49015;SDS011;34830;44.064;12.566;2024-02-15T08:50:06;21.52;;;13.27;;
49015;SDS011;34830;44.064;12.566;2024-02-15T08:52:32;22.13;;;13.57;;
49015;SDS011;34830;44.064;12.566;2024-02-15T08:54:59;25.38;;;13.18;;
49015;SDS011;34830;44.064;12.566;2024-02-15T08:57:26;27.60;;;15.02;;
49015;SDS011;34830;44.064;12.566;2024-02-15T08:59:52;24.02;;;14.50;;
49015;SDS011;34830;44.064;12.566;2024-02-15T09:02:18;35.83;;;15.55;;
49015;SDS011;34830;44.064;12.566;2024-02-15T09:04:44;27.60;;;14.20;;
49015;SDS011;34830;44.064;12.566;2024-02-15T09:07:10;32.30;;;15.50;;
49015;SDS011;34830;44.064;12.566;2024-02-15T09:09:36;20.77;;;12.60;;
49015;SDS011;34830;44.064;12.566;2024-02-15T09:12:03;25.33;;;14.88;;
49015;SDS011;34830;44.064;12.566;2024-02-15T09:14:33;26.77;;;13.13;;
49015;SDS011;34830;44.064;12.566;2024-02-15T09:16:59;21.23;;;13.60;;
49015;SDS011;34830;44.064;12.566;2024-02-15T09:19:26;23.73;;;13.02;;
49015;SDS011;34830;44.064;12.566;2024-02-15T09:21:53;22.05;;;12.68;;
49015;SDS011;34830;44.064;12.566;2024-02-15T09:24:20;24.70;;;12.63;;
49015;SDS011;34830;44.064;12.566;2024-02-15T09:26:46;21.77;;;12.88;;
49015;SDS011;34830;44.064;12.566;2024-02-15T09:29:13;24.88;;;12.35;;
49015;SDS011;34830;44.064;12.566;2024-02-15T09:31:39;20.42;;;12.00;;
49015;SDS011;34830;44.064;12.566;2024-02-15T09:34:06;20.20;;;13.23;;
49015;SDS011;34830;44.064;12.566;2024-02-15T09:36:35;19.38;;;12.20;;
49015;SDS011;34830;44.064;12.566;2024-02-15T09:39:03;23.35;;;13.23;;
49015;SDS011;34830;44.064;12.566;2024-02-15T09:41:30;23.67;;;14.18;;
49015;SDS011;34830;44.064;12.566;2024-02-15T09:43:57;21.40;;;12.18;;
49015;SDS011;34830;44.064;12.566;2024-02-15T09:46:23;22.50;;;13.05;;
49015;SDS011;34830;44.064;12.566;2024-02-15T09:48:53;21.20;;;12.45;;
49015;SDS011;34830;44.064;12.566;2024-02-15T09:51:25;21.92;;;14.55;;
49015;SDS011;34830;44.064;12.566;2024-02-15T09:53:51;20.45;;;12.70;;
49015;SDS011;34830;44.064;12.566;2024-02-15T09:56:17;20.83;;;12.43;;
49015;SDS011;34830;44.064;12.566;2024-02-15T09:58:44;24.52;;;12.80;;
49015;SDS011;34830;44.064;12.566;2024-02-15T10:01:10;21.40;;;12.65;;
49015;SDS011;34830;44.064;12.566;2024-02-15T10:03:37;21.95;;;13.15;;
49015;SDS011;34830;44.064;12.566;2024-02-15T10:06:06;23.17;;;14.02;;
49015;SDS011;34830;44.064;12.566;2024-02-15T10:08:32;24.55;;;14.27;;
49015;SDS011;34830;44.064;12.566;2024-02-15T10:11:05;28.02;;;16.00;;
49015;SDS011;34830;44.064;12.566;2024-02-15T10:13:32;23.02;;;14.60;;
49015;SDS011;34830;44.064;12.566;2024-02-15T10:15:58;21.55;;;13.63;;
49015;SDS011;34830;44.064;12.566;2024-02-15T10:18:24;22.80;;;14.73;;
49015;SDS011;34830;44.064;12.566;2024-02-15T10:20:57;24.48;;;15.43;;
49015;SDS011;34830;44.064;12.566;2024-02-15T10:23:23;25.77;;;15.73;;
49015;SDS011;34830;44.064;12.566;2024-02-15T10:25:49;28.65;;;15.32;;
49015;SDS011;34830;44.064;12.566;2024-02-15T10:28:21;28.25;;;17.15;;
49015;SDS011;34830;44.064;12.566;2024-02-15T10:30:53;26.88;;;16.45;;
49015;SDS011;34830;44.064;12.566;2024-02-15T10:33:19;31.15;;;17.15;;
49015;SDS011;34830;44.064;12.566;2024-02-15T10:35:46;31.00;;;17.58;;
49015;SDS011;34830;44.064;12.566;2024-02-15T10:38:12;32.47;;;16.88;;
49015;SDS011;34830;44.064;12.566;2024-02-15T10:40:41;26.70;;;17.30;;
49015;SDS011;34830;44.064;12.566;2024-02-15T10:43:08;32.88;;;19.35;;
49015;SDS011;34830;44.064;12.566;2024-02-15T10:45:39;27.42;;;17.23;;
49015;SDS011;34830;44.064;12.566;2024-02-15T10:48:09;28.13;;;18.48;;
49015;SDS011;34830;44.064;12.566;2024-02-15T10:50:36;30.42;;;17.63;;
49015;SDS011;34830;44.064;12.566;2024-02-15T10:53:04;30.40;;;18.25;;
49015;SDS011;34830;44.064;12.566;2024-02-15T10:55:40;33.20;;;20.42;;
49015;SDS011;34830;44.064;12.566;2024-02-15T10:58:16;28.02;;;17.88;;
49015;SDS011;34830;44.064;12.566;2024-02-15T11:00:46;27.17;;;18.73;;
49015;SDS011;34830;44.064;12.566;2024-02-15T11:03:15;31.75;;;18.20;;
49015;SDS011;34830;44.064;12.566;2024-02-15T11:05:46;27.58;;;17.83;;
49015;SDS011;34830;44.064;12.566;2024-02-15T11:08:13;27.25;;;16.83;;
49015;SDS011;34830;44.064;12.566;2024-02-15T11:10:39;28.85;;;17.42;;
49015;SDS011;34830;44.064;12.566;2024-02-15T11:13:09;25.98;;;16.75;;
49015;SDS011;34830;44.064;12.566;2024-02-15T11:18:05;28.33;;;19.33;;
49015;SDS011;34830;44.064;12.566;2024-02-15T11:23:00;31.27;;;20.13;;
49015;SDS011;34830;44.064;12.566;2024-02-15T11:33:31;33.08;;;18.50;;
49015;SDS011;34830;44.064;12.566;2024-02-15T11:38:37;28.95;;;18.75;;
49015;SDS011;34830;44.064;12.566;2024-02-15T11:41:07;29.35;;;19.33;;
49015;SDS011;34830;44.064;12.566;2024-02-15T11:46:26;33.15;;;22.95;;
49015;SDS011;34830;44.064;12.566;2024-02-15T11:49:00;32.03;;;20.98;;
49015;SDS011;34830;44.064;12.566;2024-02-15T11:51:33;33.45;;;21.73;;
49015;SDS011;34830;44.064;12.566;2024-02-15T11:59:09;31.52;;;22.30;;
49015;SDS011;34830;44.064;12.566;2024-02-15T12:01:44;32.22;;;22.60;;
49015;SDS011;34830;44.064;12.566;2024-02-15T12:04:32;36.30;;;23.95;;
49015;SDS011;34830;44.064;12.566;2024-02-15T12:07:17;34.42;;;22.80;;
49015;SDS011;34830;44.064;12.566;2024-02-15T12:10:01;38.08;;;25.52;;
49015;SDS011;34830;44.064;12.566;2024-02-15T12:12:53;39.20;;;24.27;;
49015;SDS011;34830;44.064;12.566;2024-02-15T12:15:38;36.53;;;23.55;;
49015;SDS011;34830;44.064;12.566;2024-02-15T12:18:23;34.70;;;21.67;;
49015;SDS011;34830;44.064;12.566;2024-02-15T12:21:08;32.10;;;21.23;;
49015;SDS011;34830;44.064;12.566;2024-02-15T12:23:37;32.45;;;22.30;;
49015;SDS011;34830;44.064;12.566;2024-02-15T12:26:04;39.95;;;24.80;;
49015;SDS011;34830;44.064;12.566;2024-02-15T12:28:30;35.10;;;24.50;;
49015;SDS011;34830;44.064;12.566;2024-02-15T12:30:57;38.38;;;23.33;;
49015;SDS011;34830;44.064;12.566;2024-02-15T12:33:23;35.88;;;24.40;;
49015;SDS011;34830;44.064;12.566;2024-02-15T12:35:50;39.72;;;27.08;;
49015;SDS011;34830;44.064;12.566;2024-02-15T12:38:16;37.97;;;24.52;;
49015;SDS011;34830;44.064;12.566;2024-02-15T12:40:44;35.97;;;23.90;;
49015;SDS011;34830;44.064;12.566;2024-02-15T12:43:10;40.50;;;25.38;;
49015;SDS011;34830;44.064;12.566;2024-02-15T12:45:38;40.60;;;26.35;;
49015;SDS011;34830;44.064;12.566;2024-02-15T12:48:05;42.97;;;27.05;;
49015;SDS011;34830;44.064;12.566;2024-02-15T12:50:36;39.30;;;25.23;;
49015;SDS011;34830;44.064;12.566;2024-02-15T12:53:02;44.80;;;26.48;;
49015;SDS011;34830;44.064;12.566;2024-02-15T12:58:00;43.85;;;26.80;;
49015;SDS011;34830;44.064;12.566;2024-02-15T13:00:30;41.35;;;25.70;;
49015;SDS011;34830;44.064;12.566;2024-02-15T13:02:59;47.90;;;28.52;;
49015;SDS011;34830;44.064;12.566;2024-02-15T13:05:29;51.83;;;30.10;;
49015;SDS011;34830;44.064;12.566;2024-02-15T13:07:56;55.88;;;32.65;;
49015;SDS011;34830;44.064;12.566;2024-02-15T13:10:36;56.35;;;29.40;;
49015;SDS011;34830;44.064;12.566;2024-02-15T13:13:02;48.58;;;29.13;;
49015;SDS011;34830;44.064;12.566;2024-02-15T13:15:29;44.88;;;27.52;;
49015;SDS011;34830;44.064;12.566;2024-02-15T13:17:59;51.53;;;29.15;;
49015;SDS011;34830;44.064;12.566;2024-02-15T13:20:26;54.70;;;31.50;;
49015;SDS011;34830;44.064;12.566;2024-02-15T13:23:00;48.15;;;28.95;;
49015;SDS011;34830;44.064;12.566;2024-02-15T13:25:28;54.05;;;29.95;;
49015;SDS011;34830;44.064;12.566;2024-02-15T13:28:16;52.00;;;30.10;;
49015;SDS011;34830;44.064;12.566;2024-02-15T13:30:42;54.25;;;30.38;;
49015;SDS011;34830;44.064;12.566;2024-02-15T13:33:11;63.35;;;30.95;;
49015;SDS011;34830;44.064;12.566;2024-02-15T13:35:38;59.13;;;30.38;;
49015;SDS011;34830;44.064;12.566;2024-02-15T13:38:05;59.97;;;30.63;;
49015;SDS011;34830;44.064;12.566;2024-02-15T13:40:34;63.00;;;29.77;;
49015;SDS011;34830;44.064;12.566;2024-02-15T13:43:00;68.45;;;29.13;;
49015;SDS011;34830;44.064;12.566;2024-02-15T13:45:30;53.58;;;30.02;;
49015;SDS011;34830;44.064;12.566;2024-02-15T13:47:59;49.97;;;27.45;;
49015;SDS011;34830;44.064;12.566;2024-02-15T13:50:28;60.97;;;30.13;;
49015;SDS011;34830;44.064;12.566;2024-02-15T13:52:55;56.42;;;28.02;;
49015;SDS011;34830;44.064;12.566;2024-02-15T13:55:21;62.55;;;28.48;;
49015;SDS011;34830;44.064;12.566;2024-02-15T13:57:48;53.95;;;26.13;;
49015;SDS011;34830;44.064;12.566;2024-02-15T14:00:14;58.72;;;28.67;;
49015;SDS011;34830;44.064;12.566;2024-02-15T14:02:50;56.65;;;25.80;;
49015;SDS011;34830;44.064;12.566;2024-02-15T14:05:17;55.40;;;26.40;;
49015;SDS011;34830;44.064;12.566;2024-02-15T14:07:50;51.22;;;26.52;;
49015;SDS011;34830;44.064;12.566;2024-02-15T14:10:19;60.30;;;27.50;;
49015;SDS011;34830;44.064;12.566;2024-02-15T14:12:50;58.03;;;26.08;;
49015;SDS011;34830;44.064;12.566;2024-02-15T14:15:37;53.20;;;24.45;;
49015;SDS011;34830;44.064;12.566;2024-02-15T14:18:07;54.08;;;24.60;;
49015;SDS011;34830;44.064;12.566;2024-02-15T14:20:39;48.58;;;22.10;;
49015;SDS011;34830;44.064;12.566;2024-02-15T14:23:08;48.80;;;21.48;;
49015;SDS011;34830;44.064;12.566;2024-02-15T14:25:39;51.30;;;22.77;;
49015;SDS011;34830;44.064;12.566;2024-02-15T14:28:05;48.42;;;23.08;;
49015;SDS011;34830;44.064;12.566;2024-02-15T14:30:35;47.08;;;22.52;;
49015;SDS011;34830;44.064;12.566;2024-02-15T14:33:20;40.67;;;19.02;;
49015;SDS011;34830;44.064;12.566;2024-02-15T14:35:49;39.85;;;19.45;;
49015;SDS011;34830;44.064;12.566;2024-02-15T14:38:19;41.47;;;20.13;;
49015;SDS011;34830;44.064;12.566;2024-02-15T14:40:48;45.65;;;19.20;;
49015;SDS011;34830;44.064;12.566;2024-02-15T14:43:26;41.92;;;20.25;;